createdAt,value
2022-12-11T00:00:25.600Z,99.21
2022-12-11T00:02:29.728Z,99.31
2022-12-11T00:04:32.358Z,99.60
2022-12-11T00:06:34.912Z,99.68
2022-12-11T00:08:37.771Z,99.90
2022-12-11T00:10:40.389Z,99.95
2022-12-11T00:12:42.942Z,99.73
2022-12-11T00:14:45.602Z,100.00
2022-12-11T00:16:49.750Z,100.00
2022-12-11T00:18:52.410Z,99.84
2022-12-11T00:20:54.909Z,99.98
2022-12-11T00:22:57.468Z,99.90
2022-12-11T00:25:00.075Z,99.77
2022-12-11T00:27:02.751Z,99.60
2022-12-11T00:29:05.352Z,99.46
2022-12-11T00:31:11.653Z,99.92
2022-12-11T00:33:15.455Z,99.67
2022-12-11T00:35:18.076Z,99.34
2022-12-11T00:37:20.795Z,99.57
2022-12-11T00:39:23.348Z,99.66
2022-12-11T00:41:25.849Z,99.64
2022-12-11T00:43:28.502Z,99.58
2022-12-11T00:45:31.060Z,99.32
2022-12-11T00:47:33.589Z,99.15
2022-12-11T00:49:36.281Z,99.57
2022-12-11T00:51:38.865Z,99.30
2022-12-11T00:53:41.473Z,99.57
2022-12-11T00:55:44.598Z,99.30
2022-12-11T00:57:47.512Z,99.20
2022-12-11T00:59:50.008Z,99.12
2022-12-11T01:01:52.995Z,99.45
2022-12-11T01:03:55.533Z,98.80
2022-12-11T01:05:58.054Z,99.21
2022-12-11T01:08:00.705Z,98.90
2022-12-11T01:10:22.882Z,99.02
2022-12-11T01:12:26.901Z,99.06
2022-12-11T01:14:29.432Z,99.19
2022-12-11T01:16:32.063Z,98.86
2022-12-11T01:18:34.852Z,99.10
2022-12-11T01:20:40.118Z,99.13
2022-12-11T01:22:42.716Z,99.29
2022-12-11T01:24:45.244Z,99.06
2022-12-11T01:26:47.874Z,99.05
2022-12-11T01:28:51.913Z,98.88
2022-12-11T01:30:54.426Z,98.78
2022-12-11T01:32:57.007Z,98.45
2022-12-11T01:34:59.958Z,98.70
2022-12-11T01:37:02.711Z,99.09
2022-12-11T01:39:05.312Z,99.19
2022-12-11T01:41:08.922Z,98.79
2022-12-11T01:43:12.075Z,99.26
2022-12-11T01:45:39.142Z,98.80
2022-12-11T01:47:41.840Z,98.71
2022-12-11T01:49:44.639Z,98.94
2022-12-11T01:52:03.346Z,98.85
2022-12-11T01:54:11.644Z,98.67
2022-12-11T01:56:15.277Z,99.05
2022-12-11T01:58:19.708Z,98.82
2022-12-11T02:00:22.383Z,99.44
2022-12-11T02:02:34.313Z,98.95
2022-12-11T02:04:39.360Z,99.29
2022-12-11T02:06:45.091Z,98.90
2022-12-11T02:08:47.722Z,99.27
2022-12-11T02:11:16.292Z,98.82
2022-12-11T02:13:27.065Z,98.91
2022-12-11T02:15:29.653Z,98.89
2022-12-11T02:17:44.472Z,99.24
2022-12-11T02:20:06.022Z,98.86
2022-12-11T02:22:17.504Z,99.40
2022-12-11T02:24:55.542Z,99.13
2022-12-11T02:26:58.018Z,99.33
2022-12-11T02:29:08.780Z,99.65
2022-12-11T02:31:27.999Z,99.79
2022-12-11T02:33:42.549Z,99.64
2022-12-11T02:35:46.938Z,99.65
2022-12-11T02:37:56.460Z,99.71
2022-12-11T02:39:59.057Z,99.91
2022-12-11T02:42:03.750Z,99.56
2022-12-11T02:44:07.008Z,99.60
2022-12-11T02:46:09.832Z,99.42
2022-12-11T02:48:14.242Z,99.37
2022-12-11T02:50:21.330Z,99.45
2022-12-11T02:52:26.003Z,99.93
2022-12-11T02:54:33.601Z,99.82
2022-12-11T02:56:50.904Z,99.67
2022-12-11T02:59:01.538Z,99.61
2022-12-11T03:01:04.571Z,99.75
2022-12-11T03:03:07.352Z,99.93
2022-12-11T03:05:12.538Z,99.87
2022-12-11T03:07:23.675Z,99.58
2022-12-11T03:09:28.146Z,99.38
2022-12-11T03:11:30.761Z,99.33
2022-12-11T03:13:33.378Z,99.95
2022-12-11T03:15:54.727Z,99.61
2022-12-11T03:18:13.172Z,99.37
2022-12-11T03:20:29.878Z,99.44
2022-12-11T03:22:47.742Z,99.23
2022-12-11T03:25:01.245Z,99.57
2022-12-11T03:27:27.637Z,99.48
2022-12-11T03:29:39.729Z,99.88
2022-12-11T03:31:47.587Z,99.54
2022-12-11T03:33:55.094Z,100.00
2022-12-11T03:36:05.823Z,100.00
2022-12-11T03:38:14.133Z,100.00
2022-12-11T03:40:19.431Z,100.00
2022-12-11T03:42:24.495Z,100.00
2022-12-11T03:44:29.118Z,100.00
2022-12-11T03:46:36.662Z,100.00
2022-12-11T03:48:42.491Z,100.00
2022-12-11T03:50:48.523Z,100.00
2022-12-11T03:52:52.502Z,100.00
2022-12-11T03:54:59.653Z,100.00
2022-12-11T03:57:04.364Z,100.00
2022-12-11T03:59:06.944Z,100.00
2022-12-11T04:01:11.221Z,100.00
2022-12-11T04:03:14.548Z,100.00
2022-12-11T04:05:17.515Z,100.00
2022-12-11T04:07:20.034Z,100.00
2022-12-11T04:09:22.568Z,100.00
2022-12-11T04:11:37.046Z,100.00
2022-12-11T04:13:41.338Z,100.00
2022-12-11T04:15:43.963Z,100.00
2022-12-11T04:18:05.208Z,100.00
2022-12-11T04:20:27.134Z,100.00
2022-12-11T04:22:48.044Z,100.00
2022-12-11T04:24:51.392Z,100.00
2022-12-11T04:26:53.976Z,100.00
2022-12-11T04:28:56.480Z,100.00
2022-12-11T04:30:59.088Z,100.00
2022-12-11T04:33:02.165Z,100.00
2022-12-11T04:35:06.732Z,100.00
2022-12-11T04:37:09.583Z,100.00
2022-12-11T04:39:12.152Z,100.00
2022-12-11T04:41:16.189Z,100.00
2022-12-11T04:43:18.788Z,100.00
2022-12-11T04:45:21.456Z,100.00
2022-12-11T04:47:24.145Z,100.00
2022-12-11T04:49:26.839Z,100.00
2022-12-11T04:51:30.064Z,100.00
2022-12-11T04:53:33.091Z,100.00
2022-12-11T04:55:35.632Z,100.00
2022-12-11T04:57:38.808Z,100.00
2022-12-11T04:59:41.395Z,100.00
2022-12-11T05:01:44.071Z,100.00
2022-12-11T05:03:47.765Z,100.00
2022-12-11T05:05:52.404Z,100.00
2022-12-11T05:07:55.043Z,100.00
2022-12-11T05:09:57.731Z,100.00
2022-12-11T05:12:00.541Z,100.00
2022-12-11T05:14:03.281Z,100.00
2022-12-11T05:16:08.333Z,100.00
2022-12-11T05:18:10.935Z,100.00
2022-12-11T05:20:13.492Z,100.00
2022-12-11T05:22:16.885Z,100.00
2022-12-11T05:24:19.503Z,100.00
2022-12-11T05:26:22.179Z,100.00
2022-12-11T05:28:26.565Z,100.00
2022-12-11T05:30:29.084Z,100.00
2022-12-11T05:32:31.640Z,100.00
2022-12-11T05:34:34.347Z,100.00
2022-12-11T05:36:36.956Z,100.00
2022-12-11T05:38:39.479Z,100.00
2022-12-11T05:40:42.276Z,100.00
2022-12-11T05:42:44.929Z,100.00
2022-12-11T05:44:49.475Z,100.00
2022-12-11T05:46:52.171Z,100.00
2022-12-11T05:48:57.475Z,100.00
2022-12-11T05:51:01.834Z,100.00
2022-12-11T05:53:05.571Z,100.00
2022-12-11T05:55:09.910Z,100.00
2022-12-11T05:57:12.700Z,100.00
2022-12-11T05:59:15.667Z,100.00
2022-12-11T06:01:30.032Z,100.00
2022-12-11T06:03:32.587Z,100.00
2022-12-11T06:05:42.868Z,100.00
2022-12-11T06:07:45.503Z,100.00
2022-12-11T06:09:48.053Z,100.00
2022-12-11T06:11:50.566Z,100.00
2022-12-11T06:13:53.660Z,100.00
2022-12-11T06:15:59.827Z,100.00
2022-12-11T06:18:02.402Z,100.00
2022-12-11T06:20:05.529Z,100.00
2022-12-11T06:22:08.100Z,100.00
2022-12-11T06:24:11.247Z,100.00
2022-12-11T06:26:15.546Z,100.00
2022-12-11T06:28:18.147Z,100.00
2022-12-11T06:30:21.425Z,100.00
2022-12-11T06:32:24.240Z,100.00
2022-12-11T06:34:26.854Z,100.00
2022-12-11T06:36:29.429Z,100.00
2022-12-11T06:38:33.045Z,100.00
2022-12-11T06:40:35.696Z,100.00
2022-12-11T06:42:39.128Z,100.00
2022-12-11T06:44:41.692Z,100.00
2022-12-11T06:46:44.308Z,100.00
2022-12-11T06:48:48.199Z,100.00
2022-12-11T06:50:50.770Z,100.00
2022-12-11T06:52:53.286Z,100.00
2022-12-11T06:54:56.220Z,100.00
2022-12-11T06:56:58.818Z,100.00
2022-12-11T06:59:06.930Z,100.00
2022-12-11T07:01:21.747Z,100.00
2022-12-11T07:03:24.396Z,100.00
2022-12-11T07:05:26.980Z,100.00
2022-12-11T07:07:29.595Z,100.00
2022-12-11T07:09:32.162Z,100.00
2022-12-11T07:11:34.805Z,100.00
2022-12-11T07:13:37.536Z,100.00
2022-12-11T07:15:40.625Z,100.00
2022-12-11T07:17:43.366Z,100.00
2022-12-11T07:19:45.937Z,100.00
2022-12-11T07:21:48.528Z,100.00
2022-12-11T07:23:51.240Z,100.00
2022-12-11T07:25:53.945Z,100.00
2022-12-11T07:27:56.475Z,100.00
2022-12-11T07:29:59.344Z,100.00
2022-12-11T07:32:02.071Z,100.00
2022-12-11T07:34:07.415Z,100.00
2022-12-11T07:36:12.407Z,100.00
2022-12-11T07:38:14.956Z,100.00
2022-12-11T07:40:17.845Z,100.00
2022-12-11T07:42:20.493Z,100.00
2022-12-11T07:44:23.552Z,100.00
2022-12-11T07:46:29.492Z,100.00
2022-12-11T07:48:33.069Z,100.00
2022-12-11T07:50:39.728Z,100.00
2022-12-11T07:52:42.616Z,100.00
2022-12-11T07:54:45.188Z,100.00
2022-12-11T07:56:53.199Z,100.00
2022-12-11T07:59:01.899Z,100.00
2022-12-11T08:01:05.389Z,100.00
2022-12-11T08:03:07.946Z,100.00
2022-12-11T08:05:10.894Z,100.00
2022-12-11T08:07:14.816Z,100.00
2022-12-11T08:09:20.967Z,100.00
2022-12-11T08:11:24.461Z,100.00
2022-12-11T08:13:27.725Z,100.00
2022-12-11T08:15:30.685Z,100.00
2022-12-11T08:17:39.691Z,100.00
2022-12-11T08:19:42.663Z,100.00
2022-12-11T08:21:45.441Z,100.00
2022-12-11T08:23:48.780Z,100.00
2022-12-11T08:25:51.385Z,100.00
2022-12-11T08:27:54.045Z,100.00
2022-12-11T08:29:56.640Z,100.00
2022-12-11T08:31:59.335Z,100.00
2022-12-11T08:34:02.168Z,100.00
2022-12-11T08:36:07.279Z,100.00
2022-12-11T08:38:10.001Z,100.00
2022-12-11T08:40:12.748Z,100.00
2022-12-11T08:42:15.600Z,100.00
2022-12-11T08:44:18.167Z,100.00
2022-12-11T08:46:23.976Z,100.00
2022-12-11T08:48:26.615Z,100.00
2022-12-11T08:50:29.158Z,100.00
2022-12-11T08:52:31.861Z,100.00
2022-12-11T08:54:34.412Z,100.00
2022-12-11T08:56:36.998Z,100.00
2022-12-11T08:58:39.717Z,100.00
2022-12-11T09:00:42.345Z,100.00
2022-12-11T09:02:45.141Z,100.00
2022-12-11T09:04:47.784Z,100.00
2022-12-11T09:06:50.436Z,100.00
2022-12-11T09:08:54.176Z,100.00
2022-12-11T09:10:56.820Z,100.00
2022-12-11T09:12:59.500Z,100.00
2022-12-11T09:15:02.142Z,100.00
2022-12-11T09:17:06.666Z,100.00
2022-12-11T09:19:15.528Z,100.00
2022-12-11T09:21:21.717Z,100.00
2022-12-11T09:23:24.349Z,100.00
2022-12-11T09:25:26.864Z,100.00
2022-12-11T09:27:29.443Z,100.00
2022-12-11T09:29:32.689Z,100.00
2022-12-11T09:31:36.719Z,100.00
2022-12-11T09:33:39.559Z,100.00
2022-12-11T09:35:42.273Z,100.00
2022-12-11T09:37:44.841Z,100.00
2022-12-11T09:39:47.505Z,100.00
2022-12-11T09:42:14.989Z,100.00
2022-12-11T09:44:41.830Z,100.00
2022-12-11T09:46:46.317Z,100.00
2022-12-11T09:48:50.287Z,100.00
2022-12-11T09:50:55.307Z,100.00
2022-12-11T09:53:08.705Z,100.00
2022-12-11T09:55:18.068Z,100.00
2022-12-11T09:57:32.620Z,100.00
2022-12-11T09:59:53.619Z,100.00
2022-12-11T10:02:11.178Z,100.00
2022-12-11T10:04:36.432Z,100.00
2022-12-11T10:06:48.290Z,100.00
2022-12-11T10:09:32.447Z,100.00
2022-12-11T10:11:44.681Z,100.00
2022-12-11T10:14:02.229Z,100.00
2022-12-11T10:16:14.364Z,100.00
2022-12-11T10:18:24.014Z,100.00
2022-12-11T10:20:39.497Z,100.00
2022-12-11T10:22:42.264Z,100.00
2022-12-11T10:25:16.302Z,100.00
2022-12-11T10:27:21.627Z,100.00
2022-12-11T10:29:24.580Z,100.00
2022-12-11T10:31:43.937Z,100.00
2022-12-11T10:33:53.836Z,100.00
2022-12-11T10:35:58.360Z,100.00
2022-12-11T10:38:21.826Z,100.00
2022-12-11T10:40:29.530Z,100.00
2022-12-11T10:42:32.203Z,100.00
2022-12-11T10:44:35.004Z,100.00
2022-12-11T10:46:37.712Z,100.00
2022-12-11T10:48:48.461Z,100.00
2022-12-11T10:51:03.799Z,100.00
2022-12-11T10:53:06.615Z,100.00
2022-12-11T10:55:35.508Z,100.00
2022-12-11T10:57:39.653Z,100.00
2022-12-11T10:59:50.861Z,100.00
2022-12-11T11:01:54.056Z,100.00
2022-12-11T11:04:04.909Z,100.00
2022-12-11T11:06:19.655Z,100.00
2022-12-11T11:08:23.042Z,100.00
2022-12-11T11:10:25.832Z,100.00
2022-12-11T11:12:28.609Z,100.00
2022-12-11T11:14:31.302Z,100.00
2022-12-11T11:16:38.370Z,100.00
2022-12-11T11:18:42.294Z,100.00
2022-12-11T11:20:48.310Z,100.00
2022-12-11T11:22:54.425Z,100.00
2022-12-11T11:24:59.020Z,100.00
2022-12-11T11:27:13.217Z,100.00
2022-12-11T11:29:37.882Z,100.00
2022-12-11T11:31:42.528Z,100.00
2022-12-11T11:34:10.960Z,100.00
2022-12-11T11:36:25.666Z,100.00
2022-12-11T11:38:59.853Z,100.00
2022-12-11T11:41:23.904Z,100.00
2022-12-11T11:43:55.503Z,100.00
2022-12-11T11:46:02.265Z,100.00
2022-12-11T11:48:30.544Z,100.00
2022-12-11T11:50:35.920Z,100.00
2022-12-11T11:53:07.299Z,100.00
2022-12-11T11:55:22.659Z,100.00
2022-12-11T11:57:42.711Z,100.00
2022-12-11T11:59:49.785Z,100.00
2022-12-11T12:01:56.385Z,100.00
2022-12-11T12:04:01.408Z,100.00
2022-12-11T12:06:50.874Z,100.00
2022-12-11T12:09:34.217Z,100.00
2022-12-11T12:11:54.625Z,100.00
2022-12-11T12:14:43.613Z,100.00
2022-12-11T12:17:22.525Z,100.00
2022-12-11T12:19:38.922Z,100.00
2022-12-11T12:21:51.360Z,100.00
2022-12-11T12:24:23.520Z,100.00
2022-12-11T12:26:33.204Z,100.00
2022-12-11T12:29:13.123Z,100.00
2022-12-11T12:31:42.141Z,100.00
2022-12-11T12:33:50.543Z,100.00
2022-12-11T12:36:06.640Z,100.00
2022-12-11T12:38:41.973Z,100.00
2022-12-11T12:40:56.001Z,100.00
2022-12-11T12:43:14.688Z,100.00
2022-12-11T12:45:32.989Z,100.00
2022-12-11T12:47:36.888Z,100.00
2022-12-11T12:49:48.447Z,100.00
2022-12-11T12:51:53.037Z,100.00
2022-12-11T12:54:12.316Z,100.00
2022-12-11T12:56:16.792Z,100.00
2022-12-11T12:58:27.160Z,100.00
2022-12-11T13:00:40.161Z,100.00
2022-12-11T13:02:51.105Z,100.00
2022-12-11T13:05:18.430Z,100.00
2022-12-11T13:07:27.479Z,100.00
2022-12-11T13:09:30.042Z,100.00
2022-12-11T13:11:35.018Z,100.00
2022-12-11T13:13:40.911Z,100.00
2022-12-11T13:15:44.060Z,100.00
2022-12-11T13:17:47.352Z,100.00
2022-12-11T13:19:53.219Z,100.00
2022-12-11T13:22:13.216Z,100.00
2022-12-11T13:24:22.035Z,100.00
2022-12-11T13:26:33.485Z,100.00
2022-12-11T13:28:38.733Z,100.00
2022-12-11T13:30:41.505Z,100.00
2022-12-11T13:33:14.461Z,100.00
2022-12-11T13:35:18.563Z,100.00
2022-12-11T13:37:36.444Z,100.00
2022-12-11T13:39:40.447Z,100.00
2022-12-11T13:41:47.560Z,100.00
2022-12-11T13:43:51.178Z,100.00
2022-12-11T13:46:03.339Z,100.00
2022-12-11T13:48:19.966Z,100.00
2022-12-11T13:50:29.734Z,100.00
2022-12-11T13:52:32.896Z,100.00
2022-12-11T13:54:36.625Z,100.00
2022-12-11T13:56:39.308Z,100.00
2022-12-11T13:58:42.088Z,100.00
2022-12-11T14:01:03.065Z,100.00
2022-12-11T14:03:09.879Z,100.00
2022-12-11T14:05:14.024Z,100.00
2022-12-11T14:07:24.120Z,100.00
2022-12-11T14:09:28.270Z,100.00
2022-12-11T14:11:36.289Z,100.00
2022-12-11T14:13:42.083Z,100.00
2022-12-11T14:15:45.902Z,100.00
2022-12-11T14:17:51.881Z,100.00
2022-12-11T14:19:57.439Z,100.00
2022-12-11T14:22:08.116Z,100.00
2022-12-11T14:24:14.441Z,100.00
2022-12-11T14:26:26.760Z,100.00
2022-12-11T14:28:37.214Z,100.00
2022-12-11T14:30:47.585Z,100.00
2022-12-11T14:32:52.265Z,100.00
2022-12-11T14:34:56.140Z,100.00
2022-12-11T14:37:01.340Z,100.00
2022-12-11T14:39:12.329Z,100.00
2022-12-11T14:41:30.057Z,100.00
2022-12-11T14:43:45.941Z,100.00
2022-12-11T14:45:53.890Z,100.00
2022-12-11T14:47:58.610Z,100.00
2022-12-11T14:50:38.237Z,100.00
2022-12-11T14:52:45.264Z,100.00
2022-12-11T14:54:57.326Z,100.00
2022-12-11T14:57:01.921Z,100.00
2022-12-11T14:59:09.427Z,100.00
2022-12-11T15:01:30.870Z,100.00
2022-12-11T15:03:38.977Z,100.00
2022-12-11T15:05:58.349Z,100.00
2022-12-11T15:08:11.228Z,100.00
2022-12-11T15:10:27.533Z,100.00
2022-12-11T15:12:31.025Z,100.00
2022-12-11T15:14:34.062Z,100.00
2022-12-11T15:16:40.717Z,100.00
2022-12-11T15:18:43.586Z,100.00
2022-12-11T15:20:54.896Z,100.00
2022-12-11T15:23:01.631Z,100.00
2022-12-11T15:25:04.560Z,100.00
2022-12-11T15:27:21.101Z,100.00
2022-12-11T15:29:40.328Z,100.00
2022-12-11T15:31:43.137Z,100.00
2022-12-11T15:33:48.019Z,100.00
2022-12-11T15:35:56.530Z,100.00
2022-12-11T15:38:00.222Z,100.00
2022-12-11T15:40:05.459Z,100.00
2022-12-11T15:42:08.272Z,100.00
2022-12-11T15:44:20.725Z,100.00
2022-12-11T15:46:23.616Z,100.00
2022-12-11T15:48:26.317Z,100.00
2022-12-11T15:50:30.500Z,100.00
2022-12-11T15:52:34.675Z,100.00
2022-12-11T15:54:37.772Z,100.00
2022-12-11T15:56:40.391Z,100.00
2022-12-11T15:58:45.456Z,100.00
2022-12-11T16:00:48.140Z,100.00
2022-12-11T16:02:52.284Z,100.00
2022-12-11T16:04:55.077Z,100.00
2022-12-11T16:06:57.760Z,100.00
2022-12-11T16:09:01.361Z,100.00
2022-12-11T16:11:04.126Z,100.00
2022-12-11T16:13:06.975Z,100.00
2022-12-11T16:15:11.467Z,100.00
2022-12-11T16:17:15.367Z,100.00
2022-12-11T16:19:18.010Z,100.00
2022-12-11T16:21:21.729Z,100.00
2022-12-11T16:23:24.595Z,100.00
2022-12-11T16:25:28.031Z,100.00
2022-12-11T16:27:30.635Z,100.00
2022-12-11T16:29:41.888Z,100.00
2022-12-11T16:31:44.538Z,100.00
2022-12-11T16:33:47.204Z,100.00
2022-12-11T16:35:49.898Z,100.00
2022-12-11T16:37:53.588Z,100.00
2022-12-11T16:39:56.565Z,100.00
2022-12-11T16:41:59.240Z,100.00
2022-12-11T16:44:02.424Z,100.00
2022-12-11T16:46:05.334Z,100.00
2022-12-11T16:48:07.947Z,100.00
2022-12-11T16:50:12.070Z,100.00
2022-12-11T16:52:20.480Z,100.00
2022-12-11T16:54:24.744Z,100.00
2022-12-11T16:56:27.507Z,100.00
2022-12-11T16:58:30.133Z,100.00
2022-12-11T17:00:32.723Z,100.00
2022-12-11T17:02:36.212Z,100.00
2022-12-11T17:04:39.215Z,100.00
2022-12-11T17:06:41.863Z,100.00
2022-12-11T17:08:44.839Z,100.00
2022-12-11T17:10:53.481Z,100.00
2022-12-11T17:12:56.264Z,100.00
2022-12-11T17:14:58.942Z,100.00
2022-12-11T17:17:01.551Z,100.00
2022-12-11T17:19:07.387Z,100.00
2022-12-11T17:21:15.852Z,100.00
2022-12-11T17:23:18.991Z,100.00
2022-12-11T17:25:22.685Z,100.00
2022-12-11T17:27:25.448Z,100.00
2022-12-11T17:29:28.246Z,100.00
2022-12-11T17:31:30.994Z,100.00
2022-12-11T17:33:33.716Z,100.00
2022-12-11T17:35:36.651Z,100.00
2022-12-11T17:37:39.202Z,100.00
2022-12-11T17:39:42.005Z,100.00
2022-12-11T17:41:44.683Z,100.00
2022-12-11T17:43:48.418Z,100.00
2022-12-11T17:45:55.559Z,100.00
2022-12-11T17:47:58.335Z,100.00
2022-12-11T17:50:00.960Z,100.00
2022-12-11T17:52:04.072Z,100.00
2022-12-11T17:54:06.731Z,100.00
2022-12-11T17:56:09.621Z,100.00
2022-12-11T17:58:14.393Z,100.00
2022-12-11T18:00:17.287Z,100.00
2022-12-11T18:02:29.011Z,100.00
2022-12-11T18:04:31.670Z,100.00
2022-12-11T18:06:34.233Z,100.00
2022-12-11T18:08:37.198Z,100.00
2022-12-11T18:10:41.720Z,100.00
2022-12-11T18:12:44.304Z,100.00
2022-12-11T18:14:47.027Z,100.00
2022-12-11T18:16:49.754Z,100.00
2022-12-11T18:18:53.119Z,100.00
2022-12-11T18:20:55.830Z,100.00
2022-12-11T18:22:58.790Z,100.00
2022-12-11T18:25:05.044Z,100.00
2022-12-11T18:27:14.700Z,100.00
2022-12-11T18:29:17.524Z,100.00
2022-12-11T18:31:21.827Z,100.00
2022-12-11T18:33:24.560Z,100.00
2022-12-11T18:35:27.944Z,100.00
2022-12-11T18:37:31.844Z,100.00
2022-12-11T18:39:34.677Z,100.00
2022-12-11T18:41:37.283Z,100.00
2022-12-11T18:43:41.618Z,100.00
2022-12-11T18:45:47.379Z,100.00
2022-12-11T18:47:52.125Z,100.00
2022-12-11T18:49:54.816Z,100.00
2022-12-11T18:51:57.379Z,100.00
2022-12-11T18:53:59.996Z,100.00
2022-12-11T18:56:10.309Z,100.00
2022-12-11T18:58:14.713Z,100.00
2022-12-11T19:00:18.295Z,100.00
2022-12-11T19:02:22.069Z,100.00
2022-12-11T19:04:26.414Z,100.00
2022-12-11T19:06:30.617Z,100.00
2022-12-11T19:08:33.715Z,100.00
2022-12-11T19:10:42.287Z,100.00
2022-12-11T19:12:46.321Z,100.00
2022-12-11T19:14:49.102Z,100.00
2022-12-11T19:16:51.735Z,100.00
2022-12-11T19:18:54.378Z,100.00
2022-12-11T19:21:08.065Z,100.00
2022-12-11T19:23:12.574Z,100.00
2022-12-11T19:25:15.746Z,100.00
2022-12-11T19:27:18.376Z,100.00
2022-12-11T19:29:29.796Z,100.00
2022-12-11T19:31:33.605Z,100.00
2022-12-11T19:33:36.263Z,100.00
2022-12-11T19:35:39.055Z,100.00
2022-12-11T19:37:41.649Z,100.00
2022-12-11T19:39:44.175Z,100.00
2022-12-11T19:41:47.131Z,100.00
2022-12-11T19:43:50.743Z,100.00
2022-12-11T19:45:53.464Z,100.00
2022-12-11T19:47:56.131Z,100.00
2022-12-11T19:49:58.730Z,100.00
2022-12-11T19:52:01.489Z,100.00
2022-12-11T19:54:04.972Z,100.00
2022-12-11T19:56:08.577Z,100.00
2022-12-11T19:58:11.184Z,100.00
2022-12-11T20:00:14.347Z,100.00
2022-12-11T20:02:17.097Z,100.00
2022-12-11T20:04:20.520Z,100.00
2022-12-11T20:06:24.120Z,100.00
2022-12-11T20:08:44.109Z,100.00
2022-12-11T20:10:47.092Z,100.00
2022-12-11T20:12:49.603Z,100.00
2022-12-11T20:14:52.112Z,100.00
2022-12-11T20:17:13.831Z,100.00
2022-12-11T20:19:17.473Z,100.00
2022-12-11T20:21:20.493Z,100.00
2022-12-11T20:23:23.213Z,100.00
2022-12-11T20:25:27.251Z,100.00
2022-12-11T20:27:29.928Z,100.00
2022-12-11T20:29:32.616Z,100.00
2022-12-11T20:31:36.395Z,100.00
2022-12-11T20:33:39.296Z,100.00
2022-12-11T20:35:42.449Z,100.00
2022-12-11T20:37:45.284Z,100.00
2022-12-11T20:39:47.876Z,100.00
2022-12-11T20:41:50.583Z,100.00
2022-12-11T20:43:54.429Z,100.00
2022-12-11T20:45:57.041Z,100.00
2022-12-11T20:47:59.710Z,100.00
2022-12-11T20:50:02.297Z,100.00
2022-12-11T20:52:05.799Z,100.00
2022-12-11T20:54:08.794Z,100.00
2022-12-11T20:56:18.805Z,100.00
2022-12-11T20:58:21.586Z,100.00
2022-12-11T21:00:24.803Z,100.00
2022-12-11T21:02:30.925Z,100.00
2022-12-11T21:04:34.377Z,100.00
2022-12-11T21:06:38.924Z,100.00
2022-12-11T21:08:41.484Z,100.00
2022-12-11T21:10:46.616Z,100.00
2022-12-11T21:12:49.286Z,100.00
2022-12-11T21:14:51.911Z,100.00
2022-12-11T21:16:54.518Z,100.00
2022-12-11T21:18:58.981Z,100.00
2022-12-11T21:21:01.632Z,100.00
2022-12-11T21:23:04.514Z,100.00
2022-12-11T21:25:07.311Z,100.00
2022-12-11T21:27:09.951Z,100.00
2022-12-11T21:29:12.977Z,100.00
2022-12-11T21:31:18.554Z,100.00
2022-12-11T21:33:21.470Z,100.00
2022-12-11T21:35:24.230Z,100.00
2022-12-11T21:37:26.967Z,100.00
2022-12-11T21:39:32.544Z,100.00
2022-12-11T21:41:39.239Z,100.00
2022-12-11T21:44:30.968Z,100.00
2022-12-11T21:46:10.692Z,100.00
2022-12-11T21:48:14.111Z,100.00
2022-12-11T21:50:17.538Z,100.00
2022-12-11T21:52:20.719Z,100.00
2022-12-11T21:54:23.568Z,100.00
2022-12-11T21:56:28.516Z,100.00
2022-12-11T21:58:31.067Z,100.00
2022-12-11T22:00:36.258Z,100.00
2022-12-11T22:02:41.095Z,100.00
2022-12-11T22:04:43.850Z,100.00
2022-12-11T22:06:47.710Z,100.00
2022-12-11T22:08:50.897Z,100.00
2022-12-11T22:10:53.698Z,100.00
2022-12-11T22:12:56.424Z,100.00
2022-12-11T22:14:59.138Z,100.00
2022-12-11T22:17:01.858Z,100.00
2022-12-11T22:19:04.539Z,100.00
2022-12-11T22:21:07.413Z,100.00
2022-12-11T22:23:10.104Z,100.00
2022-12-11T22:25:13.015Z,100.00
2022-12-11T22:27:20.434Z,100.00
2022-12-11T22:29:26.010Z,100.00
2022-12-11T22:31:28.547Z,100.00
2022-12-11T22:33:31.085Z,100.00
2022-12-11T22:35:33.763Z,100.00
2022-12-11T22:37:36.388Z,100.00
2022-12-11T22:39:38.963Z,100.00
2022-12-11T22:41:44.797Z,100.00
2022-12-11T22:43:47.431Z,100.00
2022-12-11T22:45:50.129Z,100.00
2022-12-11T22:47:52.692Z,100.00
2022-12-11T22:49:55.376Z,100.00
2022-12-11T22:51:58.670Z,100.00
2022-12-11T22:54:01.215Z,100.00
2022-12-11T22:56:09.087Z,100.00
2022-12-11T22:58:15.091Z,100.00
2022-12-11T23:00:21.510Z,100.00
2022-12-11T23:02:24.637Z,100.00
2022-12-11T23:04:27.559Z,100.00
2022-12-11T23:06:30.276Z,100.00
2022-12-11T23:08:33.285Z,100.00
2022-12-11T23:10:36.057Z,100.00
2022-12-11T23:12:38.642Z,100.00
2022-12-11T23:14:41.328Z,100.00
2022-12-11T23:16:44.877Z,100.00
2022-12-11T23:18:47.417Z,100.00
2022-12-11T23:20:50.179Z,100.00
2022-12-11T23:22:52.960Z,100.00
2022-12-11T23:24:55.829Z,100.00
2022-12-11T23:26:58.425Z,100.00
2022-12-11T23:29:01.662Z,100.00
2022-12-11T23:31:05.219Z,100.00
2022-12-11T23:33:08.523Z,100.00
2022-12-11T23:35:11.557Z,100.00
2022-12-11T23:37:14.534Z,100.00
2022-12-11T23:39:17.133Z,100.00
2022-12-11T23:41:20.389Z,100.00
2022-12-11T23:43:23.166Z,100.00
2022-12-11T23:45:25.867Z,100.00
2022-12-11T23:47:28.507Z,100.00
2022-12-11T23:49:31.131Z,100.00
2022-12-11T23:51:33.933Z,100.00
2022-12-11T23:53:36.638Z,100.00
2022-12-11T23:55:40.571Z,100.00
2022-12-11T23:57:43.192Z,100.00
2022-12-11T23:59:45.787Z,100.00
